createdAt,value
2023-05-24T00:00:53.181Z,56.30
2023-05-24T00:03:21.655Z,56.30
2023-05-24T00:05:49.787Z,56.20
2023-05-24T00:08:17.702Z,56.30
2023-05-24T00:10:45.599Z,56.30
2023-05-24T00:13:15.201Z,56.30
2023-05-24T00:15:44.626Z,56.20
2023-05-24T00:18:12.526Z,56.30
2023-05-24T00:20:40.807Z,56.30
2023-05-24T00:23:09.507Z,56.30
2023-05-24T00:25:37.886Z,56.30
2023-05-24T00:28:05.817Z,56.30
2023-05-24T00:30:33.748Z,56.40
2023-05-24T00:33:03.055Z,56.30
2023-05-24T00:35:30.990Z,56.30
2023-05-24T00:37:58.846Z,56.20
2023-05-24T00:40:26.771Z,56.20
2023-05-24T00:42:54.726Z,56.30
2023-05-24T00:45:22.666Z,56.20
2023-05-24T00:47:50.689Z,56.20
2023-05-24T00:50:21.091Z,56.20
2023-05-24T00:52:52.940Z,56.20
2023-05-24T00:55:21.448Z,56.30
2023-05-24T00:57:49.471Z,56.20
2023-05-24T01:00:17.896Z,56.20
2023-05-24T01:02:48.344Z,56.20
2023-05-24T01:05:17.323Z,56.20
2023-05-24T01:08:00.746Z,56.20
2023-05-24T01:10:35.926Z,56.10
2023-05-24T01:13:27.289Z,56.00
2023-05-24T01:16:01.061Z,56.10
2023-05-24T01:18:34.136Z,56.10
2023-05-24T01:21:14.012Z,56.10
2023-05-24T01:23:50.469Z,56.00
2023-05-24T01:26:32.072Z,56.10
2023-05-24T01:29:02.099Z,56.10
2023-05-24T01:31:30.072Z,56.10
2023-05-24T01:33:58.220Z,56.10
2023-05-24T01:36:26.179Z,56.10
2023-05-24T01:38:54.368Z,56.20
2023-05-24T01:41:34.419Z,56.10
2023-05-24T01:44:09.452Z,56.10
2023-05-24T01:46:39.271Z,56.10
2023-05-24T01:49:27.103Z,56.10
2023-05-24T01:52:04.452Z,56.10
2023-05-24T01:54:35.475Z,56.10
2023-05-24T01:57:07.365Z,56.10
2023-05-24T01:59:37.717Z,56.10
2023-05-24T02:02:06.080Z,56.10
2023-05-24T02:04:34.280Z,56.20
2023-05-24T02:07:02.178Z,56.10
2023-05-24T02:09:30.086Z,56.20
2023-05-24T02:11:57.975Z,56.10
2023-05-24T02:14:26.422Z,56.10
2023-05-24T02:16:59.299Z,56.10
2023-05-24T02:19:27.388Z,56.10
2023-05-24T02:21:55.476Z,56.10
2023-05-24T02:24:23.399Z,56.20
2023-05-24T02:26:51.279Z,56.20
2023-05-24T02:29:19.159Z,56.20
2023-05-24T02:31:47.037Z,56.20
2023-05-24T02:34:16.333Z,56.10
2023-05-24T02:36:45.803Z,56.10
2023-05-24T02:39:13.702Z,56.10
2023-05-24T02:41:42.160Z,56.20
2023-05-24T02:44:10.046Z,56.20
2023-05-24T02:46:38.035Z,56.20
2023-05-24T02:49:06.119Z,56.20
2023-05-24T02:51:37.030Z,56.20
2023-05-24T02:54:05.117Z,56.20
2023-05-24T02:56:33.057Z,56.20
2023-05-24T02:59:00.953Z,56.20
2023-05-24T03:01:29.112Z,56.20
2023-05-24T03:03:57.143Z,56.20
2023-05-24T03:06:25.101Z,56.20
2023-05-24T03:08:54.461Z,56.20
2023-05-24T03:11:22.730Z,56.20
2023-05-24T03:13:50.974Z,56.20
2023-05-24T03:16:19.812Z,56.20
2023-05-24T03:18:50.519Z,56.20
2023-05-24T03:21:20.572Z,56.30
2023-05-24T03:23:48.770Z,56.20
2023-05-24T03:26:18.813Z,56.10
2023-05-24T03:28:47.567Z,56.20
2023-05-24T03:31:16.643Z,56.20
2023-05-24T03:33:44.648Z,56.20
2023-05-24T03:36:12.521Z,56.20
2023-05-24T03:38:40.494Z,56.20
2023-05-24T03:41:08.361Z,56.20
2023-05-24T03:43:37.618Z,56.20
2023-05-24T03:46:05.645Z,56.20
2023-05-24T03:48:33.585Z,56.20
2023-05-24T03:51:01.459Z,56.20
2023-05-24T03:53:29.374Z,56.20
2023-05-24T03:55:57.236Z,56.20
2023-05-24T03:58:25.194Z,56.20
2023-05-24T04:00:54.613Z,56.20
2023-05-24T04:03:22.596Z,56.20
2023-05-24T04:05:50.617Z,56.20
2023-05-24T04:08:18.750Z,56.20
2023-05-24T04:10:46.785Z,56.20
2023-05-24T04:13:14.666Z,56.20
2023-05-24T04:15:43.491Z,56.20
2023-05-24T04:18:13.034Z,56.20
2023-05-24T04:20:41.626Z,56.20
2023-05-24T04:23:09.754Z,56.20
2023-05-24T04:25:37.678Z,56.10
2023-05-24T04:28:06.141Z,56.20
2023-05-24T04:30:34.066Z,56.20
2023-05-24T04:33:02.079Z,56.20
2023-05-24T04:35:31.409Z,56.20
2023-05-24T04:37:59.726Z,56.20
2023-05-24T04:40:27.637Z,56.20
2023-05-24T04:42:55.538Z,56.10
2023-05-24T04:45:23.582Z,56.10
2023-05-24T04:47:51.595Z,56.10
2023-05-24T04:50:19.553Z,56.20
2023-05-24T04:52:48.799Z,56.20
2023-05-24T04:55:16.726Z,56.20
2023-05-24T04:57:44.619Z,56.20
2023-05-24T05:00:13.825Z,56.20
2023-05-24T05:02:41.801Z,56.10
2023-05-24T05:05:10.126Z,56.20
2023-05-24T05:07:38.458Z,56.00
2023-05-24T05:10:09.292Z,56.20
2023-05-24T05:12:37.170Z,56.00
2023-05-24T05:15:05.675Z,56.10
2023-05-24T05:17:33.594Z,56.10
2023-05-24T05:20:01.631Z,56.10
2023-05-24T05:22:31.177Z,56.10
2023-05-24T05:24:59.264Z,56.10
2023-05-24T05:27:28.649Z,56.10
2023-05-24T05:29:56.744Z,56.10
2023-05-24T05:32:24.787Z,56.10
2023-05-24T05:34:52.709Z,56.10
2023-05-24T05:37:20.700Z,56.10
2023-05-24T05:39:48.582Z,56.10
2023-05-24T05:42:16.512Z,56.10
2023-05-24T05:44:46.309Z,56.10
2023-05-24T05:47:14.327Z,56.00
2023-05-24T05:49:42.230Z,56.10
2023-05-24T05:52:10.166Z,56.10
2023-05-24T05:54:38.086Z,56.10
2023-05-24T05:57:08.205Z,56.00
2023-05-24T05:59:36.554Z,56.00
2023-05-24T06:02:07.175Z,56.00
2023-05-24T06:04:35.272Z,56.10
2023-05-24T06:07:03.181Z,56.10
2023-05-24T06:09:31.170Z,56.00
2023-05-24T06:11:59.075Z,56.00
2023-05-24T06:14:26.969Z,56.10
2023-05-24T06:16:56.164Z,56.10
2023-05-24T06:19:27.157Z,56.10
2023-05-24T06:21:55.070Z,56.10
2023-05-24T06:24:23.422Z,56.10
2023-05-24T06:26:53.224Z,56.10
2023-05-24T06:29:22.350Z,56.10
2023-05-24T06:31:50.993Z,56.10
2023-05-24T06:34:21.338Z,56.10
2023-05-24T06:36:52.866Z,56.10
2023-05-24T06:39:20.952Z,56.20
2023-05-24T06:41:51.250Z,56.10
2023-05-24T06:44:19.220Z,56.10
2023-05-24T06:46:47.880Z,56.10
2023-05-24T06:49:15.986Z,56.10
2023-05-24T06:51:44.547Z,56.10
2023-05-24T06:54:13.794Z,56.10
2023-05-24T06:56:41.803Z,56.10
2023-05-24T06:59:09.746Z,56.10
2023-05-24T07:01:39.767Z,56.10
2023-05-24T07:04:07.857Z,56.10
2023-05-24T07:06:36.004Z,56.10
2023-05-24T07:09:04.460Z,56.10
2023-05-24T07:11:33.794Z,56.10
2023-05-24T07:14:01.709Z,56.10
2023-05-24T07:16:29.693Z,56.10
2023-05-24T07:18:58.293Z,56.10
2023-05-24T07:21:26.195Z,56.10
2023-05-24T07:23:54.101Z,56.10
2023-05-24T07:26:22.606Z,56.10
2023-05-24T07:28:52.128Z,56.10
2023-05-24T07:31:20.003Z,56.10
2023-05-24T07:33:47.959Z,56.10
2023-05-24T07:36:16.131Z,56.10
2023-05-24T07:38:44.546Z,56.10
2023-05-24T07:41:15.068Z,56.20
2023-05-24T07:43:43.053Z,56.10
2023-05-24T07:46:12.329Z,56.10
2023-05-24T07:48:40.276Z,56.10
2023-05-24T07:51:08.224Z,56.80
2023-05-24T07:53:37.729Z,56.10
2023-05-24T07:56:07.935Z,56.10
2023-05-24T07:58:35.872Z,56.10
2023-05-24T08:01:04.150Z,56.10
2023-05-24T08:03:33.509Z,56.10
2023-05-24T08:06:01.462Z,56.10
2023-05-24T08:08:29.700Z,56.10
2023-05-24T08:10:57.608Z,56.10
2023-05-24T08:13:25.512Z,56.10
2023-05-24T08:15:53.540Z,56.10
2023-05-24T08:18:21.475Z,56.10
2023-05-24T08:20:50.947Z,56.10
2023-05-24T08:23:18.853Z,56.10
2023-05-24T08:25:46.739Z,56.10
2023-05-24T08:28:14.730Z,56.10
2023-05-24T08:30:43.481Z,56.10
2023-05-24T08:33:11.573Z,56.10
2023-05-24T08:35:39.520Z,56.10
2023-05-24T08:38:09.772Z,56.10
2023-05-24T08:40:37.716Z,56.10
2023-05-24T08:43:11.825Z,56.10
2023-05-24T08:45:40.990Z,56.10
2023-05-24T08:48:10.144Z,56.10
2023-05-24T08:50:38.334Z,56.10
2023-05-24T08:53:09.911Z,56.10
2023-05-24T08:55:39.095Z,56.10
2023-05-24T08:58:07.849Z,56.10
2023-05-24T09:00:35.801Z,56.10
2023-05-24T09:03:06.080Z,56.20
2023-05-24T09:05:34.904Z,56.10
2023-05-24T09:08:03.853Z,56.10
2023-05-24T09:10:49.197Z,56.10
2023-05-24T09:13:23.824Z,56.70
2023-05-24T09:15:52.173Z,56.00
2023-05-24T09:18:20.295Z,56.10
2023-05-24T09:20:48.348Z,56.70
2023-05-24T09:23:17.597Z,56.10
2023-05-24T09:25:47.689Z,56.10
2023-05-24T09:28:17.593Z,56.10
2023-05-24T09:30:46.751Z,56.10
2023-05-24T09:33:14.694Z,56.10
2023-05-24T09:35:44.282Z,56.10
2023-05-24T09:38:19.370Z,56.00
2023-05-24T09:40:48.616Z,56.10
2023-05-24T09:43:16.521Z,56.10
2023-05-24T09:45:46.678Z,56.00
2023-05-24T09:48:16.644Z,56.00
2023-05-24T09:50:45.751Z,56.00
2023-05-24T09:53:13.995Z,56.00
2023-05-24T09:55:42.033Z,56.00
2023-05-24T09:58:12.803Z,56.00
2023-05-24T10:00:42.918Z,56.00
2023-05-24T10:03:13.341Z,56.00
2023-05-24T10:05:45.720Z,56.00
2023-05-24T10:08:14.393Z,56.00
2023-05-24T10:10:43.666Z,56.10
2023-05-24T10:13:15.875Z,56.00
2023-05-24T10:15:44.768Z,55.90
2023-05-24T10:18:14.190Z,55.90
2023-05-24T10:20:43.049Z,56.00
2023-05-24T10:23:11.970Z,55.90
2023-05-24T10:25:42.958Z,55.90
2023-05-24T10:28:14.906Z,55.90
2023-05-24T10:30:49.551Z,55.90
2023-05-24T10:33:19.278Z,55.90
2023-05-24T10:35:47.532Z,55.90
2023-05-24T10:38:15.679Z,55.90
2023-05-24T10:40:44.275Z,55.90
2023-05-24T10:43:12.271Z,56.60
2023-05-24T10:45:42.207Z,55.90
2023-05-24T10:48:25.676Z,55.90
2023-05-24T10:50:53.634Z,55.90
2023-05-24T10:53:24.477Z,56.00
2023-05-24T10:55:54.153Z,56.00
2023-05-24T10:58:24.409Z,56.00
2023-05-24T11:00:54.272Z,55.90
2023-05-24T11:03:24.857Z,55.90
2023-05-24T11:05:55.390Z,56.00
2023-05-24T11:08:30.996Z,56.00
2023-05-24T11:11:23.463Z,56.00
2023-05-24T11:13:57.649Z,56.00
2023-05-24T11:16:39.531Z,56.00
2023-05-24T11:19:17.998Z,56.00
2023-05-24T11:21:47.310Z,56.00
2023-05-24T11:24:17.502Z,56.00
2023-05-24T11:26:45.979Z,56.00
2023-05-24T11:29:20.850Z,55.90
2023-05-24T11:31:51.160Z,56.00
2023-05-24T11:34:19.198Z,56.00
2023-05-24T11:36:48.116Z,55.90
2023-05-24T11:39:16.103Z,56.00
2023-05-24T11:41:44.293Z,55.90
2023-05-24T11:44:13.466Z,55.90
2023-05-24T11:46:44.123Z,56.00
2023-05-24T11:49:16.490Z,55.80
2023-05-24T11:51:44.946Z,56.00
2023-05-24T11:54:12.882Z,56.00
2023-05-24T11:56:41.200Z,55.90
2023-05-24T11:59:16.698Z,56.00
2023-05-24T12:01:45.037Z,55.90
2023-05-24T12:04:13.430Z,55.90
2023-05-24T12:06:44.394Z,55.90
2023-05-24T12:09:14.502Z,55.90
2023-05-24T12:11:44.748Z,55.90
2023-05-24T12:14:14.758Z,55.90
2023-05-24T12:16:44.229Z,56.00
2023-05-24T12:19:31.450Z,56.00
2023-05-24T12:22:05.778Z,56.00
2023-05-24T12:24:34.013Z,56.00
2023-05-24T12:27:03.585Z,56.00
2023-05-24T12:29:35.376Z,55.90
2023-05-24T12:32:03.866Z,56.00
2023-05-24T12:34:31.755Z,55.90
2023-05-24T12:37:03.532Z,56.00
2023-05-24T12:39:34.154Z,55.90
2023-05-24T12:42:02.889Z,56.00
2023-05-24T12:44:33.586Z,56.00
2023-05-24T12:47:03.785Z,55.90
2023-05-24T12:49:32.415Z,56.00
2023-05-24T12:52:02.780Z,56.00
2023-05-24T12:54:30.788Z,56.00
2023-05-24T12:57:02.665Z,56.00
2023-05-24T12:59:30.983Z,56.00
2023-05-24T13:01:58.988Z,56.00
2023-05-24T13:04:27.441Z,56.00
2023-05-24T13:06:55.962Z,56.00
2023-05-24T13:09:26.223Z,56.00
2023-05-24T13:11:55.128Z,56.00
2023-05-24T13:14:23.120Z,56.00
2023-05-24T13:16:51.236Z,56.00
2023-05-24T13:19:19.424Z,56.00
2023-05-24T13:21:47.422Z,56.00
2023-05-24T13:24:17.230Z,56.00
2023-05-24T13:26:46.912Z,55.90
2023-05-24T13:31:45.889Z,55.70
2023-05-24T13:34:14.533Z,55.70
2023-05-24T13:36:43.839Z,55.70
2023-05-24T13:39:16.294Z,55.70
2023-05-24T13:41:46.384Z,55.70
2023-05-24T13:44:15.188Z,55.70
2023-05-24T13:46:43.781Z,56.40
2023-05-24T13:49:12.787Z,55.80
2023-05-24T13:51:41.135Z,55.80
2023-05-24T13:54:09.210Z,55.90
2023-05-24T13:56:37.330Z,55.90
2023-05-24T13:59:07.661Z,55.70
2023-05-24T14:01:37.657Z,55.80
2023-05-24T14:04:06.475Z,55.70
2023-05-24T14:06:34.977Z,55.80
2023-05-24T14:09:02.884Z,55.60
2023-05-24T14:11:31.900Z,55.70
2023-05-24T14:16:32.303Z,55.80
2023-05-24T14:19:00.330Z,55.70
2023-05-24T14:21:28.314Z,55.70
2023-05-24T14:23:56.238Z,55.60
2023-05-24T14:26:24.447Z,55.70
2023-05-24T14:28:56.111Z,55.60
2023-05-24T14:31:25.199Z,55.80
2023-05-24T14:33:54.569Z,55.70
2023-05-24T14:36:22.456Z,55.70
2023-05-24T14:38:50.661Z,55.50
2023-05-24T14:41:18.675Z,55.60
2023-05-24T14:43:46.571Z,56.20
2023-05-24T14:46:14.561Z,56.10
2023-05-24T14:48:42.583Z,55.50
2023-05-24T14:51:11.888Z,55.50
2023-05-24T14:53:39.816Z,55.50
2023-05-24T14:56:09.804Z,55.50
2023-05-24T14:58:37.730Z,55.50
2023-05-24T15:01:09.606Z,55.40
2023-05-24T15:03:37.614Z,55.50
2023-05-24T15:06:06.295Z,55.60
2023-05-24T15:08:36.140Z,56.20
2023-05-24T15:11:05.086Z,55.60
2023-05-24T15:13:33.626Z,55.60
2023-05-24T15:16:01.725Z,55.60
2023-05-24T15:18:32.316Z,55.60
2023-05-24T15:21:01.111Z,55.60
2023-05-24T15:23:29.219Z,55.60
2023-05-24T15:25:58.458Z,55.40
2023-05-24T15:28:26.743Z,55.50
2023-05-24T15:30:55.196Z,55.60
2023-05-24T15:33:23.232Z,55.60
2023-05-24T15:35:51.251Z,55.60
2023-05-24T15:38:19.322Z,55.70
2023-05-24T15:40:47.370Z,55.70
2023-05-24T15:43:18.946Z,55.70
2023-05-24T15:45:47.563Z,55.70
2023-05-24T15:48:15.698Z,55.70
2023-05-24T15:51:13.882Z,55.60
2023-05-24T15:53:32.465Z,55.60
2023-05-24T15:56:00.415Z,55.70
2023-05-24T15:58:29.659Z,55.70
2023-05-24T16:00:57.607Z,55.70
2023-05-24T16:03:25.982Z,55.70
2023-05-24T16:05:54.135Z,55.60
2023-05-24T16:08:27.444Z,55.60
2023-05-24T16:10:55.468Z,55.50
2023-05-24T16:13:23.719Z,55.50
2023-05-24T16:15:53.097Z,55.60
2023-05-24T16:18:22.474Z,55.60
2023-05-24T16:20:51.708Z,55.60
2023-05-24T16:23:23.297Z,55.50
2023-05-24T16:25:51.451Z,55.50
2023-05-24T16:28:23.738Z,55.50
2023-05-24T16:30:56.029Z,55.60
2023-05-24T16:33:24.370Z,55.60
2023-05-24T16:35:56.692Z,55.60
2023-05-24T16:38:25.476Z,55.60
2023-05-24T16:40:54.465Z,55.60
2023-05-24T16:43:22.730Z,55.60
2023-05-24T16:45:51.378Z,55.60
2023-05-24T16:48:23.176Z,55.60
2023-05-24T16:50:53.911Z,55.60
2023-05-24T16:53:23.045Z,55.70
2023-05-24T16:55:53.788Z,55.60
2023-05-24T16:58:21.788Z,55.60
2023-05-24T17:00:50.127Z,55.70
2023-05-24T17:03:18.219Z,55.70
2023-05-24T17:05:47.488Z,55.60
2023-05-24T17:08:15.475Z,55.70
2023-05-24T17:10:43.618Z,55.60
2023-05-24T17:13:11.651Z,55.70
2023-05-24T17:15:39.596Z,55.60
2023-05-24T17:18:08.085Z,55.60
2023-05-24T17:20:36.013Z,56.30
2023-05-24T17:23:05.318Z,55.60
2023-05-24T17:25:33.200Z,55.60
2023-05-24T17:28:01.191Z,55.60
2023-05-24T17:30:30.333Z,55.60
2023-05-24T17:32:58.280Z,55.60
2023-05-24T17:35:26.552Z,55.70
2023-05-24T17:37:54.454Z,55.60
2023-05-24T17:40:23.767Z,55.60
2023-05-24T17:42:51.659Z,55.60
2023-05-24T17:45:19.555Z,55.60
2023-05-24T17:47:47.519Z,55.50
2023-05-24T17:50:15.477Z,55.60
2023-05-24T17:52:43.390Z,55.70
2023-05-24T17:55:11.644Z,55.60
2023-05-24T17:57:40.895Z,55.60
2023-05-24T18:00:09.864Z,55.60
2023-05-24T18:02:37.826Z,55.70
2023-05-24T18:05:06.308Z,55.80
2023-05-24T18:07:34.284Z,55.80
2023-05-24T18:10:02.303Z,55.70
2023-05-24T18:12:30.566Z,55.70
2023-05-24T18:15:00.165Z,55.70
2023-05-24T18:17:28.238Z,55.80
2023-05-24T18:19:57.415Z,55.90
2023-05-24T18:22:25.360Z,55.90
2023-05-24T18:24:53.314Z,55.80
2023-05-24T18:27:21.179Z,56.00
2023-05-24T18:29:49.070Z,56.00
2023-05-24T18:32:18.414Z,56.00
2023-05-24T18:34:46.671Z,56.00
2023-05-24T18:37:14.704Z,55.90
2023-05-24T18:39:42.659Z,55.90
2023-05-24T18:42:12.560Z,55.90
2023-05-24T18:44:40.489Z,56.00
2023-05-24T18:47:08.619Z,55.90
2023-05-24T18:49:37.998Z,56.00
2023-05-24T18:52:06.243Z,56.00
2023-05-24T18:54:34.173Z,55.90
2023-05-24T18:57:04.479Z,55.90
2023-05-24T18:59:34.376Z,55.90
2023-05-24T19:02:02.433Z,55.90
2023-05-24T19:04:30.708Z,55.90
2023-05-24T19:07:00.061Z,55.90
2023-05-24T19:09:28.102Z,55.90
2023-05-24T19:11:59.018Z,55.90
2023-05-24T19:14:27.381Z,55.90
2023-05-24T19:16:55.630Z,55.90
2023-05-24T19:19:23.663Z,55.90
2023-05-24T19:21:51.558Z,55.90
2023-05-24T19:24:21.316Z,56.00
2023-05-24T19:26:49.187Z,55.90
2023-05-24T19:29:17.539Z,56.00
2023-05-24T19:31:46.713Z,56.00
2023-05-24T19:34:14.640Z,55.90
2023-05-24T19:36:42.587Z,56.00
2023-05-24T19:39:10.503Z,56.00
2023-05-24T19:41:39.778Z,55.90
2023-05-24T19:44:07.717Z,56.00
2023-05-24T19:46:36.997Z,55.90
2023-05-24T19:49:05.058Z,55.90
2023-05-24T19:51:33.065Z,55.90
2023-05-24T19:54:01.014Z,55.90
2023-05-24T19:56:28.978Z,55.90
2023-05-24T19:58:58.253Z,55.80
2023-05-24T20:01:26.261Z,55.90
2023-05-24T20:03:54.556Z,55.90
2023-05-24T20:06:22.544Z,55.80
2023-05-24T20:08:50.498Z,55.80
2023-05-24T20:11:18.464Z,55.80
2023-05-24T20:13:46.407Z,55.80
2023-05-24T20:16:15.908Z,55.80
2023-05-24T20:18:43.940Z,55.80
2023-05-24T20:21:12.194Z,55.80
2023-05-24T20:23:40.288Z,55.70
2023-05-24T20:26:08.289Z,55.70
2023-05-24T20:28:36.223Z,55.60
2023-05-24T20:31:04.229Z,55.60
2023-05-24T20:33:37.982Z,55.60
2023-05-24T20:36:06.657Z,55.60
2023-05-24T20:38:35.527Z,55.60
2023-05-24T20:41:04.284Z,55.60
2023-05-24T20:43:32.201Z,55.60
2023-05-24T20:46:00.236Z,55.60
2023-05-24T20:48:28.240Z,55.60
2023-05-24T20:50:58.101Z,55.60
2023-05-24T20:53:26.327Z,55.50
2023-05-24T20:55:56.482Z,55.60
2023-05-24T20:58:24.438Z,55.60
2023-05-24T21:00:52.383Z,55.50
2023-05-24T21:03:20.636Z,55.50
2023-05-24T21:05:48.651Z,55.50
2023-05-24T21:08:18.062Z,55.50
2023-05-24T21:10:46.185Z,55.50
2023-05-24T21:13:14.087Z,55.50
2023-05-24T21:15:44.654Z,55.50
2023-05-24T21:18:13.636Z,55.40
2023-05-24T21:20:41.581Z,55.40
2023-05-24T21:23:10.424Z,55.50
2023-05-24T21:25:39.781Z,55.40
2023-05-24T21:28:08.258Z,55.40
2023-05-24T21:30:36.195Z,55.40
2023-05-24T21:33:04.201Z,55.40
2023-05-24T21:35:32.614Z,55.40
2023-05-24T21:38:00.507Z,55.40
2023-05-24T21:40:28.371Z,55.40
2023-05-24T21:42:57.569Z,55.30
2023-05-24T21:45:25.506Z,55.40
2023-05-24T21:47:53.468Z,55.40
2023-05-24T21:50:21.450Z,55.40
2023-05-24T21:52:49.358Z,55.40
2023-05-24T21:55:17.318Z,55.40
2023-05-24T21:57:45.289Z,55.30
2023-05-24T22:00:16.821Z,55.40
2023-05-24T22:02:44.805Z,55.20
2023-05-24T22:05:13.158Z,55.30
2023-05-24T22:07:41.230Z,55.30
2023-05-24T22:10:10.412Z,55.30
2023-05-24T22:12:38.486Z,55.30
2023-05-24T22:15:07.477Z,55.30
2023-05-24T22:17:36.992Z,55.30
2023-05-24T22:20:06.115Z,55.30
2023-05-24T22:22:34.146Z,55.30
2023-05-24T22:25:02.374Z,55.30
2023-05-24T22:27:30.664Z,55.20
2023-05-24T22:29:58.879Z,55.30
2023-05-24T22:32:26.802Z,55.20
2023-05-24T22:34:56.097Z,55.20
2023-05-24T22:37:23.972Z,55.10
2023-05-24T22:39:51.905Z,55.30
2023-05-24T22:42:20.124Z,55.10
2023-05-24T22:44:48.044Z,55.20
2023-05-24T22:47:16.934Z,55.20
2023-05-24T22:49:44.829Z,55.20
2023-05-24T22:52:17.272Z,55.10
2023-05-24T22:54:45.374Z,55.10
2023-05-24T22:57:13.338Z,55.20
2023-05-24T22:59:42.672Z,55.10
2023-05-24T23:02:10.681Z,55.20
2023-05-24T23:04:38.623Z,55.10
2023-05-24T23:07:07.071Z,55.10
2023-05-24T23:09:36.608Z,55.10
2023-05-24T23:12:08.274Z,55.10
2023-05-24T23:14:38.793Z,55.10
2023-05-24T23:17:07.279Z,55.10
2023-05-24T23:19:42.126Z,55.10
2023-05-24T23:22:11.871Z,55.10
2023-05-24T23:24:43.751Z,55.10
2023-05-24T23:27:12.039Z,55.00
2023-05-24T23:29:39.955Z,55.20
2023-05-24T23:32:08.972Z,55.00
2023-05-24T23:34:37.443Z,55.00
2023-05-24T23:37:06.405Z,55.00
2023-05-24T23:39:34.580Z,55.10
2023-05-24T23:42:03.984Z,55.10
2023-05-24T23:44:32.220Z,55.10
2023-05-24T23:47:00.171Z,55.10
2023-05-24T23:49:28.107Z,55.00
2023-05-24T23:51:56.006Z,55.00
2023-05-24T23:54:23.902Z,55.00
2023-05-24T23:56:52.088Z,55.00
2023-05-24T23:59:21.955Z,55.00
